sensor_id;sensor_type;location;lat;lon;timestamp;P1;durP1;ratioP1;P2;durP2;ratioP2
12719;SDS011;6424;48.520;11.228;2022-08-19T00:01:06;25.63;;;23.23;;
12719;SDS011;6424;48.520;11.228;2022-08-19T00:03:47;25.83;;;23.17;;
12719;SDS011;6424;48.520;11.228;2022-08-19T00:06:13;25.27;;;22.60;;
12719;SDS011;6424;48.520;11.228;2022-08-19T00:08:54;26.43;;;23.73;;
12719;SDS011;6424;48.520;11.228;2022-08-19T00:11:22;24.93;;;22.33;;
12719;SDS011;6424;48.520;11.228;2022-08-19T00:14:04;24.67;;;22.37;;
12719;SDS011;6424;48.520;11.228;2022-08-19T00:16:46;24.47;;;22.00;;
12719;SDS011;6424;48.520;11.228;2022-08-19T00:19:13;24.47;;;22.07;;
12719;SDS011;6424;48.520;11.228;2022-08-19T00:21:55;23.83;;;21.57;;
12719;SDS011;6424;48.520;11.228;2022-08-19T00:24:36;24.80;;;22.40;;
12719;SDS011;6424;48.520;11.228;2022-08-19T00:27:18;23.83;;;21.47;;
12719;SDS011;6424;48.520;11.228;2022-08-19T00:29:59;24.93;;;22.33;;
12719;SDS011;6424;48.520;11.228;2022-08-19T00:32:40;24.17;;;21.87;;
12719;SDS011;6424;48.520;11.228;2022-08-19T00:35:21;22.90;;;20.80;;
12719;SDS011;6424;48.520;11.228;2022-08-19T00:38:02;21.40;;;19.37;;
12719;SDS011;6424;48.520;11.228;2022-08-19T00:40:43;23.27;;;20.97;;
12719;SDS011;6424;48.520;11.228;2022-08-19T00:43:26;23.33;;;21.03;;
12719;SDS011;6424;48.520;11.228;2022-08-19T00:46:08;22.67;;;20.47;;
12719;SDS011;6424;48.520;11.228;2022-08-19T00:48:49;22.40;;;20.17;;
12719;SDS011;6424;48.520;11.228;2022-08-19T00:51:30;22.57;;;20.33;;
12719;SDS011;6424;48.520;11.228;2022-08-19T00:54:12;20.87;;;18.90;;
12719;SDS011;6424;48.520;11.228;2022-08-19T00:56:53;19.50;;;17.60;;
12719;SDS011;6424;48.520;11.228;2022-08-19T00:59:35;19.23;;;17.23;;
12719;SDS011;6424;48.520;11.228;2022-08-19T01:02:18;19.57;;;17.67;;
12719;SDS011;6424;48.520;11.228;2022-08-19T01:05:00;19.40;;;17.33;;
12719;SDS011;6424;48.520;11.228;2022-08-19T01:07:44;18.20;;;16.40;;
12719;SDS011;6424;48.520;11.228;2022-08-19T01:10:28;17.00;;;15.40;;
12719;SDS011;6424;48.520;11.228;2022-08-19T01:13:11;18.00;;;16.27;;
12719;SDS011;6424;48.520;11.228;2022-08-19T01:15:55;17.43;;;15.73;;
12719;SDS011;6424;48.520;11.228;2022-08-19T01:18:39;18.10;;;16.33;;
12719;SDS011;6424;48.520;11.228;2022-08-19T01:21:12;18.77;;;16.97;;
12719;SDS011;6424;48.520;11.228;2022-08-19T01:24:05;18.20;;;16.40;;
12719;SDS011;6424;48.520;11.228;2022-08-19T01:26:46;16.93;;;15.33;;
12719;SDS011;6424;48.520;11.228;2022-08-19T01:29:12;16.60;;;14.90;;
12719;SDS011;6424;48.520;11.228;2022-08-19T01:31:53;15.43;;;13.93;;
12719;SDS011;6424;48.520;11.228;2022-08-19T01:34:34;17.00;;;14.73;;
12719;SDS011;6424;48.520;11.228;2022-08-19T01:37:15;16.37;;;14.77;;
12719;SDS011;6424;48.520;11.228;2022-08-19T01:39:56;16.23;;;14.20;;
12719;SDS011;6424;48.520;11.228;2022-08-19T01:42:37;16.23;;;14.63;;
12719;SDS011;6424;48.520;11.228;2022-08-19T01:45:19;15.63;;;14.03;;
12719;SDS011;6424;48.520;11.228;2022-08-19T01:48:02;15.43;;;14.00;;
12719;SDS011;6424;48.520;11.228;2022-08-19T01:50:44;15.80;;;14.07;;
12719;SDS011;6424;48.520;11.228;2022-08-19T01:53:24;14.60;;;13.10;;
12719;SDS011;6424;48.520;11.228;2022-08-19T01:55:50;13.23;;;11.97;;
12719;SDS011;6424;48.520;11.228;2022-08-19T01:58:36;13.53;;;12.13;;
12719;SDS011;6424;48.520;11.228;2022-08-19T02:01:21;12.20;;;11.10;;
12719;SDS011;6424;48.520;11.228;2022-08-19T02:04:02;11.43;;;10.40;;
12719;SDS011;6424;48.520;11.228;2022-08-19T02:06:43;11.17;;;10.10;;
12719;SDS011;6424;48.520;11.228;2022-08-19T02:09:24;11.37;;;10.37;;
12719;SDS011;6424;48.520;11.228;2022-08-19T02:11:49;11.50;;;10.30;;
12719;SDS011;6424;48.520;11.228;2022-08-19T02:14:30;10.97;;;9.87;;
12719;SDS011;6424;48.520;11.228;2022-08-19T02:17:13;11.27;;;10.20;;
12719;SDS011;6424;48.520;11.228;2022-08-19T02:19:55;9.43;;;8.60;;
12719;SDS011;6424;48.520;11.228;2022-08-19T02:22:36;10.37;;;9.37;;
12719;SDS011;6424;48.520;11.228;2022-08-19T02:25:17;10.43;;;9.40;;
12719;SDS011;6424;48.520;11.228;2022-08-19T02:27:58;9.50;;;8.67;;
12719;SDS011;6424;48.520;11.228;2022-08-19T02:30:40;10.80;;;9.70;;
12719;SDS011;6424;48.520;11.228;2022-08-19T02:33:07;9.40;;;8.27;;
12719;SDS011;6424;48.520;11.228;2022-08-19T02:35:47;9.60;;;8.80;;
12719;SDS011;6424;48.520;11.228;2022-08-19T02:38:28;9.07;;;8.27;;
12719;SDS011;6424;48.520;11.228;2022-08-19T02:41:20;9.10;;;8.27;;
12719;SDS011;6424;48.520;11.228;2022-08-19T02:44:03;8.37;;;7.67;;
12719;SDS011;6424;48.520;11.228;2022-08-19T02:46:45;8.87;;;8.13;;
12719;SDS011;6424;48.520;11.228;2022-08-19T02:49:27;8.83;;;8.03;;
12719;SDS011;6424;48.520;11.228;2022-08-19T02:52:08;8.53;;;7.73;;
12719;SDS011;6424;48.520;11.228;2022-08-19T02:54:48;8.87;;;7.77;;
12719;SDS011;6424;48.520;11.228;2022-08-19T02:57:30;8.40;;;7.57;;
12719;SDS011;6424;48.520;11.228;2022-08-19T03:00:11;8.57;;;7.73;;
12719;SDS011;6424;48.520;11.228;2022-08-19T03:02:53;10.13;;;8.10;;
12719;SDS011;6424;48.520;11.228;2022-08-19T03:05:34;9.63;;;8.73;;
12719;SDS011;6424;48.520;11.228;2022-08-19T03:08:14;9.07;;;8.20;;
12719;SDS011;6424;48.520;11.228;2022-08-19T03:10:55;11.63;;;9.70;;
12719;SDS011;6424;48.520;11.228;2022-08-19T03:13:36;10.23;;;9.23;;
12719;SDS011;6424;48.520;11.228;2022-08-19T03:16:17;12.73;;;11.33;;
12719;SDS011;6424;48.520;11.228;2022-08-19T03:18:45;11.50;;;10.50;;
12719;SDS011;6424;48.520;11.228;2022-08-19T03:21:27;12.67;;;11.57;;
12719;SDS011;6424;48.520;11.228;2022-08-19T03:24:10;12.80;;;11.70;;
12719;SDS011;6424;48.520;11.228;2022-08-19T03:26:53;13.43;;;11.93;;
12719;SDS011;6424;48.520;11.228;2022-08-19T03:29:38;14.17;;;12.77;;
12719;SDS011;6424;48.520;11.228;2022-08-19T03:32:19;14.07;;;12.77;;
12719;SDS011;6424;48.520;11.228;2022-08-19T03:35:02;15.40;;;13.80;;
12719;SDS011;6424;48.520;11.228;2022-08-19T03:37:43;13.77;;;12.47;;
12719;SDS011;6424;48.520;11.228;2022-08-19T03:40:08;15.00;;;13.47;;
12719;SDS011;6424;48.520;11.228;2022-08-19T03:42:49;17.33;;;14.70;;
12719;SDS011;6424;48.520;11.228;2022-08-19T03:45:30;16.80;;;15.10;;
12719;SDS011;6424;48.520;11.228;2022-08-19T03:48:11;17.30;;;15.67;;
12719;SDS011;6424;48.520;11.228;2022-08-19T03:50:51;17.50;;;15.80;;
12719;SDS011;6424;48.520;11.228;2022-08-19T03:53:17;18.10;;;14.90;;
12719;SDS011;6424;48.520;11.228;2022-08-19T03:55:58;17.40;;;15.70;;
12719;SDS011;6424;48.520;11.228;2022-08-19T03:58:28;19.33;;;17.47;;
12719;SDS011;6424;48.520;11.228;2022-08-19T04:00:55;18.37;;;16.33;;
12719;SDS011;6424;48.520;11.228;2022-08-19T04:03:37;20.13;;;18.03;;
12719;SDS011;6424;48.520;11.228;2022-08-19T04:06:19;20.10;;;18.00;;
12719;SDS011;6424;48.520;11.228;2022-08-19T04:09:07;20.80;;;18.70;;
12719;SDS011;6424;48.520;11.228;2022-08-19T04:11:51;20.13;;;18.03;;
12719;SDS011;6424;48.520;11.228;2022-08-19T04:14:23;22.80;;;20.50;;
12719;SDS011;6424;48.520;11.228;2022-08-19T04:17:10;23.33;;;20.50;;
12719;SDS011;6424;48.520;11.228;2022-08-19T04:19:51;23.90;;;21.33;;
12719;SDS011;6424;48.520;11.228;2022-08-19T04:22:31;24.30;;;21.70;;
12719;SDS011;6424;48.520;11.228;2022-08-19T04:25:12;26.10;;;23.60;;
12719;SDS011;6424;48.520;11.228;2022-08-19T04:27:53;24.93;;;22.50;;
12719;SDS011;6424;48.520;11.228;2022-08-19T04:30:41;25.40;;;22.80;;
12719;SDS011;6424;48.520;11.228;2022-08-19T04:33:24;24.50;;;21.27;;
12719;SDS011;6424;48.520;11.228;2022-08-19T04:36:05;25.10;;;22.57;;
12719;SDS011;6424;48.520;11.228;2022-08-19T04:38:48;24.13;;;21.73;;
12719;SDS011;6424;48.520;11.228;2022-08-19T04:41:29;23.47;;;21.13;;
12719;SDS011;6424;48.520;11.228;2022-08-19T04:44:30;26.10;;;23.57;;
12719;SDS011;6424;48.520;11.228;2022-08-19T04:46:57;26.23;;;23.73;;
12719;SDS011;6424;48.520;11.228;2022-08-19T04:49:38;26.53;;;23.73;;
12719;SDS011;6424;48.520;11.228;2022-08-19T04:52:19;29.30;;;26.17;;
12719;SDS011;6424;48.520;11.228;2022-08-19T04:54:59;27.70;;;24.80;;
12719;SDS011;6424;48.520;11.228;2022-08-19T04:57:40;29.10;;;26.00;;
12719;SDS011;6424;48.520;11.228;2022-08-19T05:00:21;26.30;;;23.70;;
12719;SDS011;6424;48.520;11.228;2022-08-19T05:03:02;28.80;;;25.77;;
12719;SDS011;6424;48.520;11.228;2022-08-19T05:05:29;31.73;;;28.33;;
12719;SDS011;6424;48.520;11.228;2022-08-19T05:08:12;31.73;;;28.63;;
12719;SDS011;6424;48.520;11.228;2022-08-19T05:10:53;31.50;;;28.30;;
12719;SDS011;6424;48.520;11.228;2022-08-19T05:13:34;33.57;;;29.97;;
12719;SDS011;6424;48.520;11.228;2022-08-19T05:16:16;30.37;;;27.27;;
12719;SDS011;6424;48.520;11.228;2022-08-19T05:18:59;33.03;;;29.60;;
12719;SDS011;6424;48.520;11.228;2022-08-19T05:21:43;28.63;;;25.77;;
12719;SDS011;6424;48.520;11.228;2022-08-19T05:24:28;34.03;;;29.57;;
12719;SDS011;6424;48.520;11.228;2022-08-19T05:27:09;32.87;;;29.57;;
12719;SDS011;6424;48.520;11.228;2022-08-19T05:29:50;31.43;;;26.80;;
12719;SDS011;6424;48.520;11.228;2022-08-19T05:32:31;34.53;;;30.83;;
12719;SDS011;6424;48.520;11.228;2022-08-19T05:35:12;30.03;;;26.20;;
12719;SDS011;6424;48.520;11.228;2022-08-19T05:37:52;32.30;;;28.70;;
12719;SDS011;6424;48.520;11.228;2022-08-19T05:40:35;34.20;;;30.80;;
12719;SDS011;6424;48.520;11.228;2022-08-19T05:43:18;35.00;;;31.30;;
12719;SDS011;6424;48.520;11.228;2022-08-19T05:45:44;34.50;;;31.00;;
12719;SDS011;6424;48.520;11.228;2022-08-19T05:48:25;36.17;;;31.30;;
12719;SDS011;6424;48.520;11.228;2022-08-19T05:51:06;36.20;;;32.23;;
12719;SDS011;6424;48.520;11.228;2022-08-19T05:53:48;36.20;;;32.33;;
12719;SDS011;6424;48.520;11.228;2022-08-19T05:56:29;35.60;;;31.70;;
12719;SDS011;6424;48.520;11.228;2022-08-19T05:59:10;37.00;;;32.37;;
12719;SDS011;6424;48.520;11.228;2022-08-19T06:01:52;34.47;;;30.83;;
12719;SDS011;6424;48.520;11.228;2022-08-19T06:04:35;31.40;;;28.10;;
12719;SDS011;6424;48.520;11.228;2022-08-19T06:07:16;39.63;;;34.23;;
12719;SDS011;6424;48.520;11.228;2022-08-19T06:09:57;38.93;;;34.73;;
12719;SDS011;6424;48.520;11.228;2022-08-19T06:12:38;36.70;;;31.93;;
12719;SDS011;6424;48.520;11.228;2022-08-19T06:15:19;39.17;;;34.70;;
12719;SDS011;6424;48.520;11.228;2022-08-19T06:18:02;33.03;;;29.57;;
12719;SDS011;6424;48.520;11.228;2022-08-19T06:20:43;36.07;;;30.63;;
12719;SDS011;6424;48.520;11.228;2022-08-19T06:23:24;35.43;;;31.73;;
12719;SDS011;6424;48.520;11.228;2022-08-19T06:26:05;40.73;;;35.20;;
12719;SDS011;6424;48.520;11.228;2022-08-19T06:28:48;37.43;;;33.43;;
12719;SDS011;6424;48.520;11.228;2022-08-19T06:31:29;38.73;;;34.13;;
12719;SDS011;6424;48.520;11.228;2022-08-19T06:34:13;37.70;;;33.67;;
12719;SDS011;6424;48.520;11.228;2022-08-19T06:36:44;37.10;;;33.13;;
12719;SDS011;6424;48.520;11.228;2022-08-19T06:39:30;33.77;;;30.17;;
12719;SDS011;6424;48.520;11.228;2022-08-19T06:42:12;38.33;;;34.43;;
12719;SDS011;6424;48.520;11.228;2022-08-19T06:44:56;39.80;;;34.40;;
12719;SDS011;6424;48.520;11.228;2022-08-19T06:47:38;36.97;;;32.37;;
12719;SDS011;6424;48.520;11.228;2022-08-19T06:50:03;39.20;;;34.97;;
12719;SDS011;6424;48.520;11.228;2022-08-19T06:52:45;38.97;;;35.00;;
12719;SDS011;6424;48.520;11.228;2022-08-19T06:55:26;45.80;;;38.30;;
12719;SDS011;6424;48.520;11.228;2022-08-19T06:58:09;36.97;;;32.03;;
12719;SDS011;6424;48.520;11.228;2022-08-19T07:00:50;36.83;;;32.90;;
12719;SDS011;6424;48.520;11.228;2022-08-19T07:03:32;41.00;;;36.53;;
12719;SDS011;6424;48.520;11.228;2022-08-19T07:06:15;34.03;;;30.50;;
12719;SDS011;6424;48.520;11.228;2022-08-19T07:08:59;39.63;;;35.30;;
12719;SDS011;6424;48.520;11.228;2022-08-19T07:11:44;40.87;;;36.20;;
12719;SDS011;6424;48.520;11.228;2022-08-19T07:14:29;40.43;;;35.43;;
12719;SDS011;6424;48.520;11.228;2022-08-19T07:17:11;39.60;;;35.20;;
12719;SDS011;6424;48.520;11.228;2022-08-19T07:19:52;41.00;;;36.57;;
12719;SDS011;6424;48.520;11.228;2022-08-19T07:22:34;40.40;;;35.93;;
12719;SDS011;6424;48.520;11.228;2022-08-19T07:25:15;41.37;;;35.87;;
12719;SDS011;6424;48.520;11.228;2022-08-19T07:27:57;41.00;;;36.57;;
12719;SDS011;6424;48.520;11.228;2022-08-19T07:30:38;43.67;;;37.63;;
12719;SDS011;6424;48.520;11.228;2022-08-19T07:33:05;40.50;;;36.20;;
12719;SDS011;6424;48.520;11.228;2022-08-19T07:35:46;39.00;;;34.83;;
12719;SDS011;6424;48.520;11.228;2022-08-19T07:38:27;43.23;;;38.43;;
12719;SDS011;6424;48.520;11.228;2022-08-19T07:41:12;44.53;;;38.60;;
12719;SDS011;6424;48.520;11.228;2022-08-19T07:43:55;44.83;;;39.73;;
12719;SDS011;6424;48.520;11.228;2022-08-19T07:46:37;39.90;;;35.47;;
12719;SDS011;6424;48.520;11.228;2022-08-19T07:49:20;46.10;;;39.20;;
12719;SDS011;6424;48.520;11.228;2022-08-19T07:52:04;48.67;;;39.87;;
12719;SDS011;6424;48.520;11.228;2022-08-19T07:54:47;42.13;;;37.60;;
12719;SDS011;6424;48.520;11.228;2022-08-19T07:57:29;45.37;;;39.47;;
12719;SDS011;6424;48.520;11.228;2022-08-19T08:00:10;47.57;;;42.00;;
12719;SDS011;6424;48.520;11.228;2022-08-19T08:02:52;48.10;;;42.57;;
12719;SDS011;6424;48.520;11.228;2022-08-19T08:05:34;50.83;;;41.47;;
12719;SDS011;6424;48.520;11.228;2022-08-19T08:08:47;51.40;;;44.27;;
12719;SDS011;6424;48.520;11.228;2022-08-19T08:11:50;52.43;;;44.43;;
12719;SDS011;6424;48.520;11.228;2022-08-19T08:14:39;53.03;;;46.50;;
12719;SDS011;6424;48.520;11.228;2022-08-19T08:17:31;56.37;;;46.37;;
12719;SDS011;6424;48.520;11.228;2022-08-19T08:20:12;55.80;;;46.67;;
12719;SDS011;6424;48.520;11.228;2022-08-19T08:22:42;52.80;;;46.37;;
12719;SDS011;6424;48.520;11.228;2022-08-19T08:25:45;57.60;;;47.83;;
12719;SDS011;6424;48.520;11.228;2022-08-19T08:28:28;56.73;;;47.50;;
12719;SDS011;6424;48.520;11.228;2022-08-19T08:31:09;56.60;;;47.93;;
12719;SDS011;6424;48.520;11.228;2022-08-19T08:33:35;53.87;;;47.40;;
12719;SDS011;6424;48.520;11.228;2022-08-19T08:36:04;55.87;;;47.90;;
12719;SDS011;6424;48.520;11.228;2022-08-19T08:38:45;56.37;;;46.50;;
12719;SDS011;6424;48.520;11.228;2022-08-19T08:47:17;57.87;;;47.87;;
12719;SDS011;6424;48.520;11.228;2022-08-19T08:50:15;55.23;;;45.87;;
12719;SDS011;6424;48.520;11.228;2022-08-19T08:53:08;48.03;;;42.80;;
12719;SDS011;6424;48.520;11.228;2022-08-19T08:55:57;51.47;;;45.00;;
12719;SDS011;6424;48.520;11.228;2022-08-19T08:58:49;56.27;;;48.23;;
12719;SDS011;6424;48.520;11.228;2022-08-19T09:01:37;50.97;;;44.83;;
12719;SDS011;6424;48.520;11.228;2022-08-19T09:04:18;52.03;;;45.77;;
12719;SDS011;6424;48.520;11.228;2022-08-19T09:07:21;52.40;;;45.37;;
12719;SDS011;6424;48.520;11.228;2022-08-19T09:09:50;56.40;;;47.43;;
12719;SDS011;6424;48.520;11.228;2022-08-19T09:15:32;53.93;;;44.67;;
12719;SDS011;6424;48.520;11.228;2022-08-19T09:18:24;57.83;;;45.07;;
12719;SDS011;6424;48.520;11.228;2022-08-19T09:21:05;47.87;;;41.90;;
12719;SDS011;6424;48.520;11.228;2022-08-19T09:23:48;49.67;;;44.10;;
12719;SDS011;6424;48.520;11.228;2022-08-19T09:26:30;52.53;;;45.27;;
12719;SDS011;6424;48.520;11.228;2022-08-19T09:29:12;48.87;;;43.57;;
12719;SDS011;6424;48.520;11.228;2022-08-19T09:31:53;50.73;;;45.20;;
12719;SDS011;6424;48.520;11.228;2022-08-19T09:34:35;50.57;;;44.70;;
12719;SDS011;6424;48.520;11.228;2022-08-19T09:37:16;63.87;;;49.53;;
12719;SDS011;6424;48.520;11.228;2022-08-19T09:39:56;62.57;;;49.20;;
12719;SDS011;6424;48.520;11.228;2022-08-19T09:42:37;58.30;;;46.70;;
12719;SDS011;6424;48.520;11.228;2022-08-19T09:45:19;55.83;;;45.90;;
12719;SDS011;6424;48.520;11.228;2022-08-19T09:48:01;55.37;;;46.00;;
12719;SDS011;6424;48.520;11.228;2022-08-19T09:50:42;51.07;;;42.97;;
12719;SDS011;6424;48.520;11.228;2022-08-19T09:53:23;48.23;;;43.03;;
12719;SDS011;6424;48.520;11.228;2022-08-19T09:56:05;47.20;;;40.60;;
12719;SDS011;6424;48.520;11.228;2022-08-19T09:58:32;50.40;;;44.10;;
12719;SDS011;6424;48.520;11.228;2022-08-19T10:01:24;48.90;;;42.30;;
12719;SDS011;6424;48.520;11.228;2022-08-19T10:04:06;55.57;;;44.60;;
12719;SDS011;6424;48.520;11.228;2022-08-19T10:06:50;51.53;;;43.20;;
12719;SDS011;6424;48.520;11.228;2022-08-19T10:09:20;49.60;;;41.87;;
12719;SDS011;6424;48.520;11.228;2022-08-19T10:12:02;46.03;;;40.63;;
12719;SDS011;6424;48.520;11.228;2022-08-19T10:14:44;48.27;;;41.97;;
12719;SDS011;6424;48.520;11.228;2022-08-19T10:17:26;53.33;;;41.30;;
12719;SDS011;6424;48.520;11.228;2022-08-19T10:19:52;46.07;;;41.03;;
12719;SDS011;6424;48.520;11.228;2022-08-19T10:22:33;42.77;;;35.07;;
12719;SDS011;6424;48.520;11.228;2022-08-19T10:25:15;47.27;;;39.03;;
12719;SDS011;6424;48.520;11.228;2022-08-19T10:27:57;41.03;;;36.23;;
12719;SDS011;6424;48.520;11.228;2022-08-19T10:30:38;41.33;;;36.60;;
12719;SDS011;6424;48.520;11.228;2022-08-19T10:33:20;42.63;;;36.30;;
12719;SDS011;6424;48.520;11.228;2022-08-19T10:36:06;42.03;;;35.50;;
12719;SDS011;6424;48.520;11.228;2022-08-19T10:38:49;38.60;;;33.40;;
12719;SDS011;6424;48.520;11.228;2022-08-19T10:41:33;40.87;;;33.67;;
12719;SDS011;6424;48.520;11.228;2022-08-19T10:44:15;37.10;;;30.87;;
12719;SDS011;6424;48.520;11.228;2022-08-19T10:46:58;29.63;;;26.10;;
12719;SDS011;6424;48.520;11.228;2022-08-19T10:49:39;33.63;;;29.03;;
12719;SDS011;6424;48.520;11.228;2022-08-19T10:52:41;39.00;;;30.30;;
12719;SDS011;6424;48.520;11.228;2022-08-19T10:55:25;36.47;;;32.57;;
12719;SDS011;6424;48.520;11.228;2022-08-19T10:58:13;37.10;;;32.63;;
12719;SDS011;6424;48.520;11.228;2022-08-19T11:00:56;37.60;;;32.33;;
12719;SDS011;6424;48.520;11.228;2022-08-19T11:03:38;41.73;;;34.73;;
12719;SDS011;6424;48.520;11.228;2022-08-19T11:06:05;42.93;;;37.40;;
12719;SDS011;6424;48.520;11.228;2022-08-19T11:08:47;46.07;;;37.77;;
12719;SDS011;6424;48.520;11.228;2022-08-19T11:11:28;41.57;;;33.97;;
12719;SDS011;6424;48.520;11.228;2022-08-19T11:14:09;39.97;;;34.70;;
12719;SDS011;6424;48.520;11.228;2022-08-19T11:16:52;40.53;;;32.77;;
12719;SDS011;6424;48.520;11.228;2022-08-19T11:19:21;38.77;;;32.37;;
12719;SDS011;6424;48.520;11.228;2022-08-19T11:22:03;32.77;;;27.90;;
12719;SDS011;6424;48.520;11.228;2022-08-19T11:24:48;24.90;;;22.13;;
12719;SDS011;6424;48.520;11.228;2022-08-19T11:27:29;17.43;;;15.63;;
12719;SDS011;6424;48.520;11.228;2022-08-19T11:30:10;14.40;;;13.00;;
12719;SDS011;6424;48.520;11.228;2022-08-19T11:32:52;13.97;;;12.40;;
12719;SDS011;6424;48.520;11.228;2022-08-19T11:35:33;15.83;;;12.57;;
12719;SDS011;6424;48.520;11.228;2022-08-19T11:38:18;8.70;;;7.10;;
12719;SDS011;6424;48.520;11.228;2022-08-19T11:41:00;9.63;;;7.50;;
12719;SDS011;6424;48.520;11.228;2022-08-19T11:43:43;9.43;;;6.43;;
12719;SDS011;6424;48.520;11.228;2022-08-19T11:46:24;11.37;;;10.17;;
12719;SDS011;6424;48.520;11.228;2022-08-19T11:49:09;12.03;;;10.80;;
12719;SDS011;6424;48.520;11.228;2022-08-19T11:51:50;12.07;;;10.87;;
12719;SDS011;6424;48.520;11.228;2022-08-19T11:54:31;13.30;;;11.90;;
12719;SDS011;6424;48.520;11.228;2022-08-19T11:57:12;16.13;;;13.90;;
12719;SDS011;6424;48.520;11.228;2022-08-19T11:59:56;21.73;;;16.87;;
12719;SDS011;6424;48.520;11.228;2022-08-19T12:02:37;27.30;;;21.40;;
12719;SDS011;6424;48.520;11.228;2022-08-19T12:05:18;26.37;;;21.50;;
12719;SDS011;6424;48.520;11.228;2022-08-19T12:07:59;24.00;;;21.17;;
12719;SDS011;6424;48.520;11.228;2022-08-19T12:10:40;27.83;;;23.03;;
12719;SDS011;6424;48.520;11.228;2022-08-19T12:13:22;17.40;;;15.50;;
12719;SDS011;6424;48.520;11.228;2022-08-19T12:16:09;12.07;;;10.83;;
12719;SDS011;6424;48.520;11.228;2022-08-19T12:18:52;10.53;;;9.43;;
12719;SDS011;6424;48.520;11.228;2022-08-19T12:21:22;10.53;;;9.37;;
12719;SDS011;6424;48.520;11.228;2022-08-19T12:24:07;16.17;;;13.70;;
12719;SDS011;6424;48.520;11.228;2022-08-19T12:26:48;20.63;;;17.43;;
12719;SDS011;6424;48.520;11.228;2022-08-19T12:29:29;27.23;;;19.97;;
12719;SDS011;6424;48.520;11.228;2022-08-19T12:32:10;25.53;;;22.27;;
12719;SDS011;6424;48.520;11.228;2022-08-19T12:34:51;26.37;;;22.63;;
12719;SDS011;6424;48.520;11.228;2022-08-19T12:37:32;24.73;;;21.90;;
12719;SDS011;6424;48.520;11.228;2022-08-19T12:40:14;26.13;;;22.90;;
12719;SDS011;6424;48.520;11.228;2022-08-19T12:42:57;28.23;;;23.93;;
12719;SDS011;6424;48.520;11.228;2022-08-19T12:45:39;24.53;;;21.60;;
12719;SDS011;6424;48.520;11.228;2022-08-19T12:48:19;26.10;;;23.37;;
12719;SDS011;6424;48.520;11.228;2022-08-19T12:51:06;26.07;;;22.97;;
12719;SDS011;6424;48.520;11.228;2022-08-19T12:53:49;25.10;;;22.40;;
12719;SDS011;6424;48.520;11.228;2022-08-19T12:56:30;24.60;;;21.87;;
12719;SDS011;6424;48.520;11.228;2022-08-19T12:59:11;25.17;;;22.33;;
12719;SDS011;6424;48.520;11.228;2022-08-19T13:01:52;21.33;;;19.10;;
12719;SDS011;6424;48.520;11.228;2022-08-19T13:04:33;21.47;;;19.10;;
12719;SDS011;6424;48.520;11.228;2022-08-19T13:07:20;18.47;;;16.60;;
12719;SDS011;6424;48.520;11.228;2022-08-19T13:10:02;17.43;;;15.63;;
12719;SDS011;6424;48.520;11.228;2022-08-19T13:12:47;16.83;;;15.13;;
12719;SDS011;6424;48.520;11.228;2022-08-19T13:15:29;15.83;;;14.17;;
12719;SDS011;6424;48.520;11.228;2022-08-19T13:18:12;15.93;;;14.33;;
12719;SDS011;6424;48.520;11.228;2022-08-19T13:20:54;16.17;;;14.53;;
12719;SDS011;6424;48.520;11.228;2022-08-19T13:23:36;16.90;;;15.20;;
12719;SDS011;6424;48.520;11.228;2022-08-19T13:26:17;16.63;;;14.93;;
12719;SDS011;6424;48.520;11.228;2022-08-19T13:28:44;18.47;;;15.97;;
12719;SDS011;6424;48.520;11.228;2022-08-19T13:31:44;19.73;;;17.63;;
12719;SDS011;6424;48.520;11.228;2022-08-19T13:34:43;23.23;;;19.37;;
12719;SDS011;6424;48.520;11.228;2022-08-19T13:37:26;21.33;;;19.13;;
12719;SDS011;6424;48.520;11.228;2022-08-19T13:40:23;22.90;;;20.47;;
12719;SDS011;6424;48.520;11.228;2022-08-19T13:43:06;26.90;;;24.00;;
12719;SDS011;6424;48.520;11.228;2022-08-19T13:45:48;27.60;;;24.50;;
12719;SDS011;6424;48.520;11.228;2022-08-19T13:48:31;28.23;;;24.43;;
12719;SDS011;6424;48.520;11.228;2022-08-19T13:51:12;28.60;;;24.57;;
12719;SDS011;6424;48.520;11.228;2022-08-19T13:53:52;31.17;;;26.97;;
12719;SDS011;6424;48.520;11.228;2022-08-19T13:56:39;31.47;;;28.07;;
12719;SDS011;6424;48.520;11.228;2022-08-19T13:59:24;35.00;;;29.33;;
12719;SDS011;6424;48.520;11.228;2022-08-19T14:02:05;36.77;;;30.90;;
12719;SDS011;6424;48.520;11.228;2022-08-19T14:04:30;32.57;;;28.43;;
12719;SDS011;6424;48.520;11.228;2022-08-19T14:07:11;33.50;;;29.90;;
12719;SDS011;6424;48.520;11.228;2022-08-19T14:09:53;34.27;;;30.13;;
12719;SDS011;6424;48.520;11.228;2022-08-19T14:12:33;34.10;;;30.53;;
12719;SDS011;6424;48.520;11.228;2022-08-19T14:15:15;36.13;;;32.13;;
12719;SDS011;6424;48.520;11.228;2022-08-19T14:17:56;34.17;;;30.47;;
12719;SDS011;6424;48.520;11.228;2022-08-19T14:20:37;34.77;;;30.50;;
12719;SDS011;6424;48.520;11.228;2022-08-19T14:23:18;36.60;;;32.03;;
12719;SDS011;6424;48.520;11.228;2022-08-19T14:26:04;34.87;;;31.10;;
12719;SDS011;6424;48.520;11.228;2022-08-19T14:28:47;34.77;;;31.00;;
12719;SDS011;6424;48.520;11.228;2022-08-19T14:31:27;34.03;;;30.33;;
12719;SDS011;6424;48.520;11.228;2022-08-19T14:34:08;34.33;;;30.77;;
12719;SDS011;6424;48.520;11.228;2022-08-19T14:36:50;33.83;;;30.13;;
12719;SDS011;6424;48.520;11.228;2022-08-19T14:39:30;33.50;;;29.53;;
12719;SDS011;6424;48.520;11.228;2022-08-19T14:42:11;34.70;;;31.03;;
12719;SDS011;6424;48.520;11.228;2022-08-19T14:44:57;32.00;;;28.70;;
12719;SDS011;6424;48.520;11.228;2022-08-19T14:47:39;30.73;;;26.83;;
12719;SDS011;6424;48.520;11.228;2022-08-19T14:50:20;28.87;;;25.90;;
12719;SDS011;6424;48.520;11.228;2022-08-19T14:53:03;28.60;;;25.63;;
12719;SDS011;6424;48.520;11.228;2022-08-19T14:55:46;26.97;;;24.17;;
12719;SDS011;6424;48.520;11.228;2022-08-19T14:58:27;29.63;;;26.53;;
12719;SDS011;6424;48.520;11.228;2022-08-19T15:01:09;27.37;;;24.57;;
12719;SDS011;6424;48.520;11.228;2022-08-19T15:03:51;29.70;;;26.53;;
12719;SDS011;6424;48.520;11.228;2022-08-19T15:06:34;28.47;;;25.57;;
12719;SDS011;6424;48.520;11.228;2022-08-19T15:09:15;25.57;;;22.87;;
12719;SDS011;6424;48.520;11.228;2022-08-19T15:11:56;24.77;;;22.20;;
12719;SDS011;6424;48.520;11.228;2022-08-19T15:14:39;23.70;;;21.30;;
12719;SDS011;6424;48.520;11.228;2022-08-19T15:17:22;21.70;;;19.63;;
12719;SDS011;6424;48.520;11.228;2022-08-19T15:20:03;23.27;;;20.87;;
12719;SDS011;6424;48.520;11.228;2022-08-19T15:22:46;21.30;;;19.27;;
12719;SDS011;6424;48.520;11.228;2022-08-19T15:25:27;21.33;;;19.07;;
12719;SDS011;6424;48.520;11.228;2022-08-19T15:27:53;19.97;;;18.10;;
12719;SDS011;6424;48.520;11.228;2022-08-19T15:30:21;19.87;;;17.97;;
12719;SDS011;6424;48.520;11.228;2022-08-19T15:33:03;19.83;;;17.90;;
12719;SDS011;6424;48.520;11.228;2022-08-19T15:35:29;19.50;;;17.60;;
12719;SDS011;6424;48.520;11.228;2022-08-19T15:38:10;17.17;;;15.57;;
12719;SDS011;6424;48.520;11.228;2022-08-19T15:40:52;18.40;;;16.50;;
12719;SDS011;6424;48.520;11.228;2022-08-19T15:43:54;17.20;;;15.60;;
12719;SDS011;6424;48.520;11.228;2022-08-19T15:46:39;16.53;;;14.73;;
12719;SDS011;6424;48.520;11.228;2022-08-19T15:49:21;15.40;;;14.00;;
12719;SDS011;6424;48.520;11.228;2022-08-19T15:52:02;14.57;;;13.17;;
12719;SDS011;6424;48.520;11.228;2022-08-19T15:54:46;14.70;;;13.33;;